createdAt,value
2023-02-13T00:00:11.304Z,99619.06
2023-02-13T00:02:37.965Z,99621.59
2023-02-13T00:05:04.735Z,99620.25
2023-02-13T00:07:31.415Z,99623.44
2023-02-13T00:09:58.061Z,99624.88
2023-02-13T00:12:24.751Z,99623.56
2023-02-13T00:14:51.450Z,99629.25
2023-02-13T00:17:18.082Z,99632.81
2023-02-13T00:19:44.749Z,99624.34
2023-02-13T00:22:11.830Z,99623.84
2023-02-13T00:24:38.566Z,99624.72
2023-02-13T00:27:05.232Z,99626.53
2023-02-13T00:29:31.850Z,99625.91
2023-02-13T00:31:58.580Z,99628.69
2023-02-13T00:34:25.271Z,99633.84
2023-02-13T00:36:51.890Z,99635.78
2023-02-13T00:39:18.581Z,99637.63
2023-02-13T00:41:45.339Z,99639.75
2023-02-13T00:44:12.086Z,99645.34
2023-02-13T00:46:38.856Z,99642.31
2023-02-13T00:49:06.152Z,99646.88
2023-02-13T00:51:32.893Z,99649.34
2023-02-13T00:53:59.545Z,99652.69
2023-02-13T00:56:26.156Z,99646.88
2023-02-13T00:58:52.909Z,99647.09
2023-02-13T01:01:19.578Z,99649.03
2023-02-13T01:03:46.305Z,99637.84
2023-02-13T01:06:12.966Z,99637.06
2023-02-13T01:08:40.797Z,99637.50
2023-02-13T01:11:07.997Z,99643.06
2023-02-13T01:13:34.752Z,99636.06
2023-02-13T01:16:01.593Z,99639.81
2023-02-13T01:18:28.457Z,99638.09
2023-02-13T01:21:04.139Z,99636.72
2023-02-13T01:23:35.250Z,99634.44
2023-02-13T01:26:07.819Z,99635.63
2023-02-13T01:28:35.062Z,99637.06
2023-02-13T01:31:02.328Z,99634.47
2023-02-13T01:33:29.852Z,99634.03
2023-02-13T01:35:56.602Z,99642.09
2023-02-13T01:38:23.242Z,99641.44
2023-02-13T01:40:54.363Z,99637.25
2023-02-13T01:43:23.539Z,99638.41
2023-02-13T01:45:55.800Z,99643.56
2023-02-13T01:48:27.318Z,99644.47
2023-02-13T01:51:04.775Z,99644.81
2023-02-13T01:53:36.093Z,99648.69
2023-02-13T01:56:08.333Z,99649.75
2023-02-13T01:58:37.406Z,99643.63
2023-02-13T02:01:06.610Z,99653.84
2023-02-13T02:03:39.708Z,99641.25
2023-02-13T02:06:11.084Z,99628.75
2023-02-13T02:08:39.065Z,99638.34
2023-02-13T02:11:15.425Z,99634.56
2023-02-13T02:13:42.641Z,99636.50
2023-02-13T02:16:09.740Z,99637.13
2023-02-13T02:18:36.386Z,99635.06
2023-02-13T02:21:38.738Z,99628.09
2023-02-13T02:24:38.691Z,99621.47
2023-02-13T02:27:43.934Z,99620.13
2023-02-13T02:30:46.084Z,99626.72
2023-02-13T02:33:23.102Z,99628.22
2023-02-13T02:36:20.746Z,99626.72
2023-02-13T02:39:06.634Z,99625.19
2023-02-13T02:42:06.633Z,99632.50
2023-02-13T02:45:03.330Z,99624.53
2023-02-13T02:48:31.214Z,99627.00
2023-02-13T02:51:53.145Z,99629.66
2023-02-13T02:55:03.216Z,99625.25
2023-02-13T02:57:51.804Z,99628.75
2023-02-13T03:00:41.085Z,99630.91
2023-02-13T03:03:38.908Z,99627.13
2023-02-13T03:06:14.381Z,99620.56
2023-02-13T03:09:13.560Z,99620.81
2023-02-13T03:12:01.849Z,99618.19
2023-02-13T03:14:28.695Z,99610.75
2023-02-13T03:17:16.782Z,99617.94
2023-02-13T03:20:34.251Z,99620.63
2023-02-13T03:23:18.420Z,99615.88
2023-02-13T03:26:13.603Z,99616.88
2023-02-13T03:29:09.418Z,99621.34
2023-02-13T03:32:00.936Z,99616.25
2023-02-13T03:34:52.641Z,99616.94
2023-02-13T03:37:46.894Z,99616.50
2023-02-13T03:40:22.318Z,99613.53
2023-02-13T03:43:04.808Z,99614.41
2023-02-13T03:45:57.288Z,99617.47
2023-02-13T03:48:54.607Z,99618.59
2023-02-13T03:51:28.108Z,99608.47
2023-02-13T03:54:01.947Z,99608.47
2023-02-13T03:56:50.978Z,99603.34
2023-02-13T03:59:29.234Z,99605.84
2023-02-13T04:02:20.240Z,99601.75
2023-02-13T04:04:54.462Z,99602.59
2023-02-13T04:07:29.690Z,99606.88
2023-02-13T04:10:03.471Z,99607.09
2023-02-13T04:13:12.537Z,99606.44
2023-02-13T04:15:45.488Z,99602.25
2023-02-13T04:18:21.222Z,99606.00
2023-02-13T04:20:48.345Z,99605.91
2023-02-13T04:23:15.468Z,99599.13
2023-02-13T04:25:46.084Z,99607.06
2023-02-13T04:28:12.751Z,99612.88
2023-02-13T04:30:39.548Z,99602.47
2023-02-13T04:33:06.286Z,99604.22
2023-02-13T04:35:32.912Z,99607.75
2023-02-13T04:37:59.583Z,99603.78
2023-02-13T04:40:26.239Z,99611.31
2023-02-13T04:42:53.012Z,99616.88
2023-02-13T04:45:19.632Z,99613.56
2023-02-13T04:47:56.078Z,99626.91
2023-02-13T04:50:23.535Z,99616.41
2023-02-13T04:52:55.612Z,99615.31
2023-02-13T04:55:23.882Z,99612.72
2023-02-13T04:57:53.886Z,99618.94
2023-02-13T05:00:22.372Z,99608.78
2023-02-13T05:02:49.257Z,99608.56
2023-02-13T05:05:16.122Z,99601.16
2023-02-13T05:07:43.110Z,99609.31
2023-02-13T05:10:11.745Z,99609.22
2023-02-13T05:12:38.880Z,99605.78
2023-02-13T05:15:06.520Z,99611.47
2023-02-13T05:17:33.172Z,99602.53
2023-02-13T05:19:59.999Z,99609.63
2023-02-13T05:22:45.252Z,99602.66
2023-02-13T05:25:11.905Z,99604.91
2023-02-13T05:27:38.580Z,99604.13
2023-02-13T05:30:05.999Z,99610.06
2023-02-13T05:32:32.708Z,99608.34
2023-02-13T05:34:59.324Z,99618.22
2023-02-13T05:37:26.037Z,99612.22
2023-02-13T05:39:52.615Z,99612.84
2023-02-13T05:42:19.277Z,99615.53
2023-02-13T05:44:45.905Z,99611.69
2023-02-13T05:47:12.513Z,99609.00
2023-02-13T05:49:39.127Z,99609.94
2023-02-13T05:52:05.833Z,99608.13
2023-02-13T05:54:32.472Z,99611.22
2023-02-13T05:56:59.116Z,99613.38
2023-02-13T05:59:25.742Z,99617.25
2023-02-13T06:01:52.651Z,99621.78
2023-02-13T06:04:19.338Z,99620.25
2023-02-13T06:06:46.212Z,99622.53
2023-02-13T06:09:12.955Z,99628.31
2023-02-13T06:11:39.568Z,99626.91
2023-02-13T06:14:06.228Z,99618.22
2023-02-13T06:16:32.904Z,99614.16
2023-02-13T06:18:59.650Z,99630.03
2023-02-13T06:21:26.262Z,99630.88
2023-02-13T06:23:52.872Z,99635.88
2023-02-13T06:26:19.591Z,99634.44
2023-02-13T06:28:46.242Z,99644.56
2023-02-13T06:31:13.245Z,99650.44
2023-02-13T06:33:39.953Z,99653.34
2023-02-13T06:36:07.350Z,99652.53
2023-02-13T06:38:33.943Z,99650.59
2023-02-13T06:41:04.512Z,99653.75
2023-02-13T06:43:31.199Z,99644.50
2023-02-13T06:45:57.841Z,99647.75
2023-02-13T06:48:24.707Z,99650.97
2023-02-13T06:50:54.540Z,99662.16
2023-02-13T06:53:24.784Z,99655.97
2023-02-13T06:55:55.612Z,99656.63
2023-02-13T06:58:24.164Z,99659.66
2023-02-13T07:00:52.131Z,99667.47
2023-02-13T07:03:19.020Z,99671.97
2023-02-13T07:05:45.805Z,99669.28
2023-02-13T07:08:13.496Z,99669.16
2023-02-13T07:10:41.591Z,99676.44
2023-02-13T07:13:09.428Z,99681.28
2023-02-13T07:15:37.080Z,99681.19
2023-02-13T07:18:04.661Z,99680.97
2023-02-13T07:20:31.341Z,99674.31
2023-02-13T07:23:02.475Z,99675.75
2023-02-13T07:25:29.876Z,99669.94
2023-02-13T07:28:04.510Z,99672.09
2023-02-13T07:30:33.175Z,99673.19
2023-02-13T07:33:04.215Z,99675.66
2023-02-13T07:35:31.264Z,99674.91
2023-02-13T07:37:58.140Z,99675.00
2023-02-13T07:40:24.780Z,99681.00
2023-02-13T07:42:51.597Z,99671.13
2023-02-13T07:45:18.259Z,99680.13
2023-02-13T07:47:44.889Z,99674.03
2023-02-13T07:50:12.068Z,99675.00
2023-02-13T07:52:38.883Z,99666.94
2023-02-13T07:55:06.282Z,99665.50
2023-02-13T07:57:33.716Z,99668.66
2023-02-13T08:00:00.408Z,99676.34
2023-02-13T08:02:27.091Z,99674.28
2023-02-13T08:04:53.707Z,99677.59
2023-02-13T08:07:20.468Z,99674.03
2023-02-13T08:10:05.635Z,99679.03
2023-02-13T08:12:35.149Z,99681.59
2023-02-13T08:15:01.794Z,99680.78
2023-02-13T08:17:28.450Z,99677.06
2023-02-13T08:19:55.147Z,99678.78
2023-02-13T08:22:21.777Z,99677.84
2023-02-13T08:24:48.403Z,99670.97
2023-02-13T08:27:15.379Z,99676.22
2023-02-13T08:29:42.248Z,99683.31
2023-02-13T08:32:09.453Z,99683.53
2023-02-13T08:34:36.256Z,99685.63
2023-02-13T08:37:03.483Z,99685.75
2023-02-13T08:39:30.117Z,99692.25
2023-02-13T08:41:56.774Z,99690.13
2023-02-13T08:44:23.401Z,99681.91
2023-02-13T08:46:50.033Z,99697.31
2023-02-13T08:49:16.829Z,99695.44
2023-02-13T08:51:43.451Z,99696.03
2023-02-13T08:54:10.067Z,99695.00
2023-02-13T08:56:36.708Z,99697.25
2023-02-13T08:59:03.472Z,99697.63
2023-02-13T09:01:30.204Z,99699.09
2023-02-13T09:03:56.861Z,99697.69
2023-02-13T09:06:26.175Z,99697.03
2023-02-13T09:08:53.572Z,99700.72
2023-02-13T09:11:23.228Z,99705.50
2023-02-13T09:13:52.983Z,99707.91
2023-02-13T09:16:19.841Z,99709.56
2023-02-13T09:18:51.082Z,99708.44
2023-02-13T09:21:19.960Z,99709.28
2023-02-13T09:23:46.578Z,99705.19
2023-02-13T09:26:15.218Z,99709.28
2023-02-13T09:28:42.509Z,99708.03
2023-02-13T09:31:12.140Z,99712.47
2023-02-13T09:33:39.223Z,99718.94
2023-02-13T09:36:07.553Z,99708.84
2023-02-13T09:38:34.745Z,99708.69
2023-02-13T09:41:05.911Z,99709.44
2023-02-13T09:43:41.008Z,99718.25
2023-02-13T09:46:16.101Z,99718.06
2023-02-13T09:48:47.006Z,99718.31
2023-02-13T09:51:17.560Z,99719.28
2023-02-13T09:53:51.256Z,99712.88
2023-02-13T09:56:24.430Z,99713.34
2023-02-13T09:59:06.486Z,99711.84
2023-02-13T10:01:47.864Z,99714.69
2023-02-13T10:05:00.638Z,99718.03
2023-02-13T10:07:51.632Z,99716.72
2023-02-13T10:11:00.170Z,99719.56
2023-02-13T10:14:01.998Z,99722.91
2023-02-13T10:16:49.409Z,99729.50
2023-02-13T10:19:42.807Z,99723.19
2023-02-13T10:22:17.035Z,99724.66
2023-02-13T10:25:04.912Z,99727.69
2023-02-13T10:51:13.769Z,99699.56
2023-02-13T10:57:26.569Z,99693.22
2023-02-13T11:24:26.185Z,99683.75
2023-02-13T11:26:59.505Z,99682.22
2023-02-13T11:29:30.895Z,99676.47
2023-02-13T11:32:28.454Z,99682.13
2023-02-13T11:34:56.183Z,99675.13
2023-02-13T11:37:28.547Z,99670.09
2023-02-13T11:39:57.859Z,99671.47
2023-02-13T11:42:31.386Z,99672.34
2023-02-13T11:45:01.798Z,99672.09
2023-02-13T11:47:39.251Z,99674.47
2023-02-13T11:50:29.507Z,99662.03
2023-02-13T11:53:06.288Z,99665.72
2023-02-13T11:55:40.428Z,99659.22
2023-02-13T11:58:25.172Z,99666.53
2023-02-13T12:01:25.023Z,99660.53
2023-02-13T12:04:18.365Z,99665.22
2023-02-13T12:07:12.687Z,99665.78
2023-02-13T12:09:41.022Z,99668.31
2023-02-13T12:12:16.576Z,99666.88
2023-02-13T12:14:45.323Z,99667.97
2023-02-13T12:17:31.260Z,99672.16
2023-02-13T12:19:59.464Z,99665.38
2023-02-13T12:23:03.888Z,99670.41
2023-02-13T12:25:53.916Z,99661.69
2023-02-13T12:28:28.418Z,99660.59
2023-02-13T12:31:38.569Z,99653.84
2023-02-13T12:34:33.679Z,99653.91
2023-02-13T12:37:13.643Z,99652.03
2023-02-13T12:39:52.751Z,99650.19
2023-02-13T12:42:41.160Z,99647.41
2023-02-13T12:45:48.060Z,99648.66
2023-02-13T12:48:33.426Z,99650.06
2023-02-13T12:51:26.939Z,99648.69
2023-02-13T12:54:30.844Z,99635.06
2023-02-13T12:57:36.153Z,99637.41
2023-02-13T13:00:40.195Z,99628.25
2023-02-13T13:03:35.035Z,99625.19
2023-02-13T13:06:19.755Z,99623.06
2023-02-13T13:09:11.699Z,99625.47
2023-02-13T13:12:30.615Z,99625.00
2023-02-13T13:15:34.798Z,99636.84
2023-02-13T13:18:36.092Z,99634.81
2023-02-13T13:21:36.720Z,99640.03
2023-02-13T13:24:35.836Z,99632.56
2023-02-13T13:27:03.891Z,99633.97
2023-02-13T13:29:42.868Z,99639.00
2023-02-13T13:32:16.784Z,99634.44
2023-02-13T13:34:43.737Z,99632.38
2023-02-13T13:37:37.126Z,99634.44
2023-02-13T13:40:24.319Z,99637.41
2023-02-13T13:43:03.156Z,99633.22
2023-02-13T13:46:08.007Z,99635.19
2023-02-13T13:49:06.994Z,99639.19
2023-02-13T13:51:33.888Z,99632.84
2023-02-13T13:54:25.350Z,99630.13
2023-02-13T13:57:11.903Z,99626.75
2023-02-13T14:00:21.829Z,99622.09
2023-02-13T14:03:25.140Z,99618.44
2023-02-13T14:06:08.030Z,99621.34
2023-02-13T14:08:40.727Z,99622.75
2023-02-13T14:11:27.046Z,99620.53
2023-02-13T14:13:53.679Z,99615.47
2023-02-13T14:16:47.564Z,99604.53
2023-02-13T14:19:45.283Z,99604.94
2023-02-13T14:22:34.354Z,99598.97
2023-02-13T14:25:06.495Z,99601.97
2023-02-13T14:27:38.700Z,99597.00
2023-02-13T14:30:22.212Z,99595.81
2023-02-13T14:32:49.043Z,99601.75
2023-02-13T14:35:33.636Z,99602.69
2023-02-13T14:38:02.786Z,99597.28
2023-02-13T14:40:43.979Z,99590.09
2023-02-13T14:43:42.252Z,99594.47
2023-02-13T14:46:41.292Z,99582.16
2023-02-13T14:49:15.430Z,99582.63
2023-02-13T14:51:49.463Z,99582.91
2023-02-13T14:54:26.384Z,99570.28
2023-02-13T14:56:58.329Z,99573.94
2023-02-13T14:59:29.207Z,99570.84
2023-02-13T15:02:01.127Z,99570.38
2023-02-13T15:04:38.908Z,99564.41
2023-02-13T15:07:13.265Z,99564.22
2023-02-13T15:09:41.511Z,99561.91
2023-02-13T15:12:34.380Z,99550.22
2023-02-13T15:15:02.172Z,99554.53
2023-02-13T15:17:32.789Z,99555.44
2023-02-13T15:20:24.352Z,99549.47
2023-02-13T15:22:51.679Z,99550.78
2023-02-13T15:25:39.173Z,99551.16
2023-02-13T15:28:08.521Z,99552.84
2023-02-13T15:30:37.061Z,99562.47
2023-02-13T15:33:17.090Z,99552.75
2023-02-13T15:35:44.818Z,99558.84
2023-02-13T15:38:24.907Z,99548.94
2023-02-13T15:40:55.451Z,99550.44
2023-02-13T15:43:32.223Z,99555.00
2023-02-13T15:46:02.670Z,99552.09
2023-02-13T15:48:31.974Z,99554.16
2023-02-13T15:50:59.248Z,99563.28
2023-02-13T15:53:26.066Z,99559.66
2023-02-13T15:56:01.799Z,99560.13
2023-02-13T15:58:34.205Z,99555.47
2023-02-13T16:01:05.587Z,99563.94
2023-02-13T16:03:34.764Z,99555.91
2023-02-13T16:06:02.504Z,99567.66
2023-02-13T16:08:36.097Z,99570.16
2023-02-13T16:11:26.717Z,99573.44
2023-02-13T16:14:26.746Z,99571.28
2023-02-13T16:17:03.159Z,99572.06
2023-02-13T16:19:41.966Z,99581.75
2023-02-13T16:22:54.652Z,99569.44
2023-02-13T16:25:39.452Z,99568.13
2023-02-13T16:28:21.341Z,99571.28
2023-02-13T16:30:59.991Z,99574.16
2023-02-13T16:33:31.905Z,99575.66
2023-02-13T16:36:01.065Z,99581.53
2023-02-13T16:38:36.479Z,99590.16
2023-02-13T16:41:05.990Z,99584.19
2023-02-13T16:44:02.917Z,99581.16
2023-02-13T16:46:33.028Z,99583.19
2023-02-13T16:49:21.888Z,99583.81
2023-02-13T16:51:52.440Z,99589.38
2023-02-13T16:54:48.595Z,99599.13
2023-02-13T16:57:23.050Z,99593.63
2023-02-13T17:00:22.272Z,99601.44
2023-02-13T17:02:50.848Z,99604.47
2023-02-13T17:05:24.130Z,99604.78
2023-02-13T17:07:54.501Z,99605.41
2023-02-13T17:10:40.005Z,99600.63
2023-02-13T17:13:11.484Z,99610.09
2023-02-13T17:15:42.054Z,99612.34
2023-02-13T17:18:08.692Z,99612.50
2023-02-13T17:20:37.337Z,99615.38
2023-02-13T17:23:07.029Z,99624.22
2023-02-13T17:25:37.977Z,99625.59
2023-02-13T17:28:16.644Z,99623.63
2023-02-13T17:30:44.368Z,99626.94
2023-02-13T17:33:16.613Z,99626.63
2023-02-13T17:35:43.306Z,99618.53
2023-02-13T17:38:10.440Z,99617.53
2023-02-13T17:40:37.675Z,99616.16
2023-02-13T17:43:04.886Z,99609.88
2023-02-13T17:45:34.596Z,99619.00
2023-02-13T17:48:01.265Z,99618.25
2023-02-13T17:50:29.818Z,99611.09
2023-02-13T17:52:57.720Z,99610.47
2023-02-13T17:55:26.816Z,99606.13
2023-02-13T17:57:56.573Z,99602.56
2023-02-13T18:00:25.696Z,99605.41
2023-02-13T18:02:52.565Z,99609.63
2023-02-13T18:05:19.961Z,99615.00
2023-02-13T18:07:47.752Z,99618.88
2023-02-13T18:10:17.523Z,99625.16
2023-02-13T18:12:45.401Z,99622.63
2023-02-13T18:15:13.350Z,99614.09
2023-02-13T18:17:40.086Z,99616.22
2023-02-13T18:20:09.720Z,99616.06
2023-02-13T18:22:36.449Z,99616.63
2023-02-13T18:25:04.356Z,99619.66
2023-02-13T18:27:30.987Z,99611.25
2023-02-13T18:29:57.703Z,99605.56
2023-02-13T18:32:24.918Z,99601.38
2023-02-13T18:34:51.662Z,99606.03
2023-02-13T18:37:18.695Z,99601.97
2023-02-13T18:39:45.360Z,99603.16
2023-02-13T18:42:13.363Z,99603.16
2023-02-13T18:44:40.805Z,99595.22
2023-02-13T18:47:08.217Z,99589.56
2023-02-13T18:49:36.206Z,99589.56
2023-02-13T18:52:03.127Z,99591.19
2023-02-13T18:54:29.971Z,99592.09
2023-02-13T18:56:56.668Z,99589.56
2023-02-13T18:59:23.581Z,99590.56
2023-02-13T19:01:51.149Z,99598.97
2023-02-13T19:04:17.827Z,99605.09
2023-02-13T19:06:44.997Z,99607.47
2023-02-13T19:09:11.710Z,99609.13
2023-02-13T19:11:39.514Z,99603.00
2023-02-13T19:14:06.920Z,99600.13
2023-02-13T19:16:35.463Z,99609.84
2023-02-13T19:19:05.181Z,99616.91
2023-02-13T19:21:33.963Z,99606.59
2023-02-13T19:24:02.890Z,99610.31
2023-02-13T19:26:29.593Z,99608.19
2023-02-13T19:28:58.004Z,99607.00
2023-02-13T19:31:27.429Z,99604.91
2023-02-13T19:33:54.667Z,99605.34
2023-02-13T19:36:25.649Z,99604.91
2023-02-13T19:39:03.103Z,99595.47
2023-02-13T19:41:30.400Z,99595.88
2023-02-13T19:43:57.296Z,99599.78
2023-02-13T19:46:29.058Z,99593.31
2023-02-13T19:48:56.030Z,99595.72
2023-02-13T19:51:25.660Z,99586.59
2023-02-13T19:54:00.832Z,99580.59
2023-02-13T19:56:28.448Z,99585.22
2023-02-13T19:58:55.245Z,99580.59
2023-02-13T20:01:23.695Z,99578.66
2023-02-13T20:03:51.091Z,99562.63
2023-02-13T20:06:21.413Z,99561.56
2023-02-13T20:08:51.596Z,99559.16
2023-02-13T20:11:20.854Z,99558.69
2023-02-13T20:13:48.312Z,99561.81
2023-02-13T20:16:17.160Z,99553.28
2023-02-13T20:18:44.036Z,99554.78
2023-02-13T20:21:12.752Z,99557.19
2023-02-13T20:23:40.062Z,99557.06
2023-02-13T20:26:14.721Z,99553.28
2023-02-13T20:28:42.887Z,99550.19
2023-02-13T20:31:17.596Z,99541.66
2023-02-13T20:33:45.113Z,99539.56
2023-02-13T20:36:16.384Z,99544.38
2023-02-13T20:38:43.545Z,99535.13
2023-02-13T20:41:17.654Z,99555.75
2023-02-13T20:43:44.990Z,99563.03
2023-02-13T20:46:12.700Z,99565.44
2023-02-13T20:48:40.679Z,99558.53
2023-02-13T20:51:11.492Z,99556.44
2023-02-13T20:53:38.903Z,99550.44
2023-02-13T20:56:13.345Z,99550.72
2023-02-13T20:58:42.054Z,99557.91
2023-02-13T21:01:22.999Z,99558.19
2023-02-13T21:03:53.743Z,99569.56
2023-02-13T21:06:25.771Z,99585.72
2023-02-13T21:08:52.496Z,99587.31
2023-02-13T21:11:20.277Z,99587.06
2023-02-13T21:13:47.169Z,99578.03
2023-02-13T21:16:25.471Z,99575.63
2023-02-13T21:18:54.886Z,99577.09
2023-02-13T21:21:24.171Z,99574.03
2023-02-13T21:23:54.618Z,99576.09
2023-02-13T21:26:21.707Z,99562.97
2023-02-13T21:28:49.367Z,99553.53
2023-02-13T21:31:27.593Z,99543.22
2023-02-13T21:33:56.711Z,99543.94
2023-02-13T21:36:23.364Z,99534.97
2023-02-13T21:38:50.054Z,99524.50
2023-02-13T21:41:18.367Z,99517.03
2023-02-13T21:43:48.419Z,99518.22
2023-02-13T21:46:21.008Z,99519.13
2023-02-13T21:48:51.749Z,99513.75
2023-02-13T21:51:20.147Z,99518.53
2023-02-13T21:53:48.720Z,99527.19
2023-02-13T21:56:20.411Z,99543.66
2023-02-13T21:58:47.777Z,99549.78
2023-02-13T22:01:26.083Z,99557.81
2023-02-13T22:04:00.340Z,99552.25
2023-02-13T22:06:28.379Z,99568.56
2023-02-13T22:09:08.989Z,99577.16
2023-02-13T22:11:36.227Z,99586.66
2023-02-13T22:14:05.608Z,99586.16
2023-02-13T22:16:34.886Z,99573.69
2023-02-13T22:19:02.307Z,99567.09
2023-02-13T22:21:33.588Z,99562.34
2023-02-13T22:24:00.376Z,99565.34
2023-02-13T22:26:35.330Z,99572.69
2023-02-13T22:29:10.766Z,99567.31
2023-02-13T22:31:38.008Z,99569.22
2023-02-13T22:34:05.954Z,99558.44
2023-02-13T22:36:35.075Z,99570.59
2023-02-13T22:39:01.857Z,99573.44
2023-02-13T22:41:28.596Z,99568.44
2023-02-13T22:43:55.894Z,99576.63
2023-02-13T22:46:25.414Z,99569.09
2023-02-13T22:48:52.827Z,99579.31
2023-02-13T22:51:25.686Z,99586.88
2023-02-13T22:53:54.418Z,99596.56
2023-02-13T22:56:21.667Z,99600.88
2023-02-13T22:58:48.673Z,99598.44
2023-02-13T23:01:18.174Z,99600.19
2023-02-13T23:03:45.090Z,99593.50
2023-02-13T23:06:13.858Z,99597.88
2023-02-13T23:08:41.276Z,99601.56
2023-02-13T23:11:30.152Z,99613.94
2023-02-13T23:13:56.939Z,99605.00
2023-02-13T23:16:23.860Z,99601.38
2023-02-13T23:18:57.706Z,99600.31
2023-02-13T23:21:25.106Z,99600.19
2023-02-13T23:23:51.876Z,99597.63
2023-02-13T23:26:18.806Z,99595.47
2023-02-13T23:28:45.532Z,99587.88
2023-02-13T23:31:12.286Z,99598.13
2023-02-13T23:33:38.990Z,99597.91
2023-02-13T23:36:06.414Z,99581.91
2023-02-13T23:38:33.081Z,99574.47
2023-02-13T23:41:09.032Z,99565.78
2023-02-13T23:43:35.790Z,99578.28
2023-02-13T23:46:06.805Z,99574.19
2023-02-13T23:48:34.193Z,99568.72
2023-02-13T23:51:01.566Z,99566.88
2023-02-13T23:53:28.575Z,99574.75
2023-02-13T23:55:55.326Z,99575.38
2023-02-13T23:58:22.058Z,99572.13
